createdAt,value
2018-12-04T06:54:31.490Z,3.60
2018-12-04T06:57:00.865Z,3.10
2018-12-04T06:59:30.249Z,3.20
2018-12-04T07:02:04.402Z,3.67
2018-12-04T07:04:33.778Z,3.17
2018-12-04T07:07:06.643Z,3.33
2018-12-04T07:09:37.523Z,3.20
2018-12-04T07:12:06.985Z,3.40
2018-12-04T07:14:36.370Z,3.27
2018-12-04T07:17:05.836Z,2.87
2018-12-04T07:19:38.454Z,3.40
2018-12-04T07:22:09.269Z,3.60
2018-12-04T07:24:42.850Z,3.60
2018-12-04T07:27:13.662Z,3.17
2018-12-04T07:29:43.159Z,3.10
2018-12-04T07:32:12.646Z,3.50
2018-12-04T07:34:42.023Z,3.43
2018-12-04T07:37:11.658Z,3.33
2018-12-04T07:39:41.148Z,2.93
2018-12-04T07:42:10.990Z,2.77
2018-12-04T07:44:41.565Z,3.33
2018-12-04T07:47:14.200Z,2.80
2018-12-04T07:49:46.602Z,2.53
2018-12-04T07:52:16.185Z,2.67
2018-12-04T07:54:47.786Z,2.53
2018-12-04T07:57:21.842Z,2.53
2018-12-04T07:59:51.575Z,2.53
2018-12-04T08:02:22.086Z,2.70
2018-12-04T08:04:51.789Z,2.80
2018-12-04T08:07:24.145Z,2.77
2018-12-04T08:09:55.641Z,2.60
2018-12-04T08:12:25.072Z,2.60
2018-12-04T08:14:54.662Z,2.80
2018-12-04T08:17:24.149Z,2.77
2018-12-04T08:19:53.634Z,2.77
2018-12-04T08:22:23.115Z,2.80
2018-12-04T08:24:53.651Z,2.80
2018-12-04T08:27:35.294Z,2.87
2018-12-04T08:30:08.195Z,3.00
2018-12-04T08:32:39.469Z,2.47
2018-12-04T08:35:10.565Z,3.33
2018-12-04T08:37:40.683Z,3.27
2018-12-04T08:40:10.217Z,3.60
2018-12-04T08:42:39.665Z,3.37
2018-12-04T08:45:09.653Z,3.47
2018-12-04T08:47:39.034Z,4.03
2018-12-04T08:50:09.114Z,4.00
2018-12-04T08:52:38.686Z,4.13
2018-12-04T08:55:08.292Z,4.23
2018-12-04T08:57:38.734Z,4.30
2018-12-04T09:00:08.866Z,4.83
2018-12-04T09:02:38.663Z,3.77
2018-12-04T09:05:08.867Z,4.07
2018-12-04T09:07:38.732Z,4.03
2018-12-04T09:10:08.567Z,4.20
2018-12-04T09:12:37.966Z,3.73
2018-12-04T09:15:07.894Z,3.20
2018-12-04T09:17:37.361Z,3.73
2018-12-04T09:20:08.403Z,3.70
2018-12-04T09:22:37.955Z,2.90
2018-12-04T09:25:07.621Z,3.07
2018-12-04T09:27:37.039Z,3.10
2018-12-04T09:30:13.605Z,3.47
2018-12-04T09:32:43.222Z,3.60
2018-12-04T09:35:15.874Z,2.90
2018-12-04T09:37:45.694Z,3.20
2018-12-04T09:40:15.165Z,3.53
2018-12-04T09:42:44.632Z,3.67
2018-12-04T09:45:15.989Z,4.00
2018-12-04T09:47:45.354Z,3.60
2018-12-04T09:50:14.955Z,3.57
2018-12-04T09:52:52.366Z,3.40
2018-12-04T09:55:22.834Z,3.27
2018-12-04T09:57:52.442Z,3.03
2018-12-04T10:00:23.438Z,2.73
2018-12-04T10:02:53.167Z,3.27
2018-12-04T10:05:23.581Z,3.40
2018-12-04T10:07:53.406Z,3.43
2018-12-04T10:10:24.415Z,3.50
2018-12-04T10:12:54.115Z,3.90
2018-12-04T10:15:24.693Z,3.50
2018-12-04T10:17:55.531Z,3.27
2018-12-04T10:20:25.952Z,3.77
2018-12-04T10:22:55.521Z,4.00
2018-12-04T10:25:25.099Z,3.60
2018-12-04T10:27:55.396Z,3.43
2018-12-04T10:30:25.448Z,3.40
2018-12-04T10:32:55.142Z,3.80
2018-12-04T10:35:26.842Z,3.80
2018-12-04T10:37:56.238Z,3.73
2018-12-04T10:40:25.805Z,4.27
2018-12-04T10:42:55.282Z,4.47
2018-12-04T10:45:25.300Z,5.07
2018-12-04T10:47:56.225Z,4.70
2018-12-04T10:50:25.626Z,4.97
2018-12-04T10:52:58.179Z,4.93
2018-12-04T10:55:27.665Z,5.03
2018-12-04T10:57:58.586Z,4.90
2018-12-04T11:00:38.853Z,4.43
2018-12-04T11:03:14.789Z,4.10
2018-12-04T11:05:44.417Z,3.47
2018-12-04T11:08:13.801Z,2.97
2018-12-04T11:10:43.306Z,2.20
2018-12-04T11:13:12.774Z,2.07
2018-12-04T11:15:43.439Z,1.93
2018-12-04T11:18:13.062Z,2.23
2018-12-04T11:20:42.456Z,2.40
2018-12-04T11:23:13.170Z,1.67
2018-12-04T11:25:48.340Z,1.90
2018-12-04T11:28:19.983Z,1.87
2018-12-04T11:30:49.884Z,1.30
2018-12-04T11:33:19.417Z,1.57
2018-12-04T11:35:48.990Z,1.43
2018-12-04T11:38:18.569Z,1.80
2018-12-04T11:40:48.254Z,1.80
2018-12-04T11:43:21.844Z,1.67
2018-12-04T11:45:51.326Z,2.17
2018-12-04T11:48:21.580Z,1.80
2018-12-04T11:50:51.370Z,1.50
2018-12-04T11:53:20.766Z,1.90
2018-12-04T11:55:54.337Z,1.63
2018-12-04T11:58:23.880Z,2.37
2018-12-04T12:00:53.375Z,2.10
2018-12-04T12:03:23.184Z,2.23
2018-12-04T12:05:53.352Z,2.13
2018-12-04T12:08:23.951Z,2.93
2018-12-04T12:10:54.909Z,2.20
2018-12-04T12:13:28.354Z,2.00
2018-12-04T12:16:01.789Z,2.37
2018-12-04T12:18:31.658Z,2.37
2018-12-04T12:21:01.228Z,2.43
2018-12-04T12:23:30.809Z,2.20
2018-12-04T12:26:00.430Z,2.37
2018-12-04T12:28:36.064Z,2.80
2018-12-04T12:31:12.675Z,2.47
2018-12-04T12:33:42.088Z,2.53
2018-12-04T12:36:12.865Z,2.37
2018-12-04T12:38:42.493Z,2.03
2018-12-04T12:41:15.038Z,1.90
2018-12-04T12:43:44.589Z,2.37
2018-12-04T12:46:17.179Z,1.93
2018-12-04T12:48:50.256Z,2.37
2018-12-04T12:51:20.054Z,2.73
2018-12-04T12:53:49.816Z,2.90
2018-12-04T12:56:19.365Z,2.87
2018-12-04T12:58:49.146Z,3.00
2018-12-04T13:01:18.898Z,3.03
2018-12-04T13:03:51.266Z,2.90
2018-12-04T13:06:20.849Z,3.00
2018-12-04T13:08:51.640Z,2.50
2018-12-04T13:11:21.244Z,2.67
2018-12-04T13:13:54.224Z,2.50
2018-12-04T13:16:23.740Z,2.87
2018-12-04T13:18:55.095Z,2.60
2018-12-04T13:21:24.555Z,3.20
2018-12-04T13:24:04.244Z,2.73
2018-12-04T13:26:33.993Z,2.80
2018-12-04T13:29:03.535Z,2.97
2018-12-04T13:31:32.909Z,2.47
2018-12-04T13:34:02.642Z,2.50
2018-12-04T13:36:36.152Z,2.07
2018-12-04T13:39:10.744Z,2.27
2018-12-04T13:41:40.453Z,2.00
2018-12-04T13:44:11.427Z,2.67
2018-12-04T13:46:40.927Z,2.20
2018-12-04T13:49:10.390Z,2.57
2018-12-04T13:51:43.890Z,2.00
2018-12-04T13:54:14.470Z,1.83
2018-12-04T13:56:48.519Z,2.70
2018-12-04T13:59:17.920Z,2.97
2018-12-04T14:01:48.450Z,2.70
2018-12-04T14:04:18.332Z,2.50
2018-12-04T14:06:50.865Z,2.73
2018-12-04T14:09:20.461Z,2.57
2018-12-04T14:11:50.264Z,2.57
2018-12-04T14:14:22.436Z,3.07
2018-12-04T14:16:54.698Z,2.40
2018-12-04T14:19:25.344Z,2.27
2018-12-04T14:21:54.814Z,2.47
2018-12-04T14:24:24.218Z,2.60
2018-12-04T14:26:53.692Z,2.63
2018-12-04T14:29:23.050Z,3.07
2018-12-04T14:31:52.412Z,2.90
2018-12-04T14:34:21.899Z,3.00
2018-12-04T14:36:51.414Z,4.37
2018-12-04T14:39:20.802Z,6.93
2018-12-04T14:41:50.189Z,9.47
2018-12-04T14:44:19.571Z,5.60
2018-12-04T14:46:49.546Z,6.33
2018-12-04T14:49:19.023Z,5.23
2018-12-04T14:51:48.942Z,4.73
2018-12-04T14:54:20.981Z,3.13
2018-12-04T14:56:57.125Z,2.37
2018-12-04T14:59:26.514Z,3.00
2018-12-04T15:01:55.892Z,2.70
2018-12-04T15:04:30.619Z,2.50
2018-12-04T15:07:01.074Z,2.70
2018-12-04T15:09:30.582Z,3.23
2018-12-04T15:12:00.165Z,7.57
2018-12-04T15:14:30.750Z,3.97
2018-12-04T15:17:00.210Z,3.23
2018-12-04T15:19:30.303Z,14.00
2018-12-04T15:21:59.758Z,31.80
2018-12-04T15:24:36.641Z,23.83
2018-12-04T15:27:05.996Z,4.73
2018-12-04T15:29:36.667Z,4.33
2018-12-04T15:32:06.344Z,7.37
2018-12-04T15:34:42.379Z,4.90
2018-12-04T15:37:12.017Z,4.27
2018-12-04T15:39:42.905Z,7.20
2018-12-04T15:42:13.354Z,3.43
2018-12-04T15:44:43.143Z,4.10
2018-12-04T15:47:13.760Z,5.40
2018-12-04T15:49:43.375Z,3.87
2018-12-04T15:52:13.123Z,4.50
2018-12-04T15:54:42.705Z,4.13
2018-12-04T15:57:12.414Z,4.60
2018-12-04T15:59:41.795Z,3.43
2018-12-04T16:02:11.642Z,4.75
2018-12-04T16:04:41.359Z,4.37
2018-12-04T16:07:10.732Z,4.03
2018-12-04T16:09:40.422Z,4.20
2018-12-04T16:12:09.782Z,3.77
2018-12-04T16:14:39.376Z,5.20
2018-12-04T16:17:15.174Z,5.17
2018-12-04T16:19:40.446Z,6.73
2018-12-04T16:22:10.310Z,6.70
2018-12-04T16:24:42.446Z,8.13
2018-12-04T16:27:11.834Z,11.33
2018-12-04T16:29:41.219Z,12.00
2018-12-04T16:32:12.257Z,7.17
2018-12-04T16:34:41.764Z,9.10
2018-12-04T16:37:11.234Z,11.47
2018-12-04T16:39:41.204Z,8.43
2018-12-04T16:42:11.848Z,7.47
2018-12-04T16:44:41.578Z,7.30
2018-12-04T16:47:11.149Z,12.90
2018-12-04T16:49:40.839Z,9.40
2018-12-04T16:52:11.475Z,8.37
2018-12-04T16:54:42.617Z,7.17
2018-12-04T16:57:12.059Z,9.40
2018-12-04T16:59:41.567Z,9.00
2018-12-04T17:02:12.058Z,8.20
2018-12-04T17:04:41.552Z,8.30
2018-12-04T17:07:12.609Z,9.17
2018-12-04T17:09:42.123Z,8.13
2018-12-04T17:12:11.512Z,9.50
2018-12-04T17:14:42.188Z,9.70
2018-12-04T17:17:11.661Z,11.60
2018-12-04T17:19:41.313Z,9.47
2018-12-04T17:22:10.777Z,10.30
2018-12-04T17:24:40.261Z,9.30
2018-12-04T17:27:09.993Z,6.77
2018-12-04T17:29:40.497Z,6.67
2018-12-04T17:32:11.132Z,7.03
2018-12-04T17:34:40.557Z,6.90
2018-12-04T17:37:11.022Z,7.60
2018-12-04T17:39:43.490Z,13.73
2018-12-04T17:42:14.687Z,13.80
2018-12-04T17:44:44.332Z,22.00
2018-12-04T17:47:15.482Z,20.80
2018-12-04T17:49:45.043Z,15.67
2018-12-04T17:52:14.527Z,11.10
2018-12-04T17:54:44.176Z,9.47
2018-12-04T17:57:14.857Z,7.40
2018-12-04T17:59:44.502Z,7.57
2018-12-04T18:02:14.472Z,9.03
2018-12-04T18:04:44.154Z,9.83
2018-12-04T18:07:13.940Z,10.27
2018-12-04T18:09:44.674Z,8.27
2018-12-04T18:12:15.298Z,7.77
2018-12-04T18:14:44.768Z,7.20
2018-12-04T18:17:14.383Z,6.23
2018-12-04T18:19:43.878Z,8.00
2018-12-04T18:22:13.397Z,11.90
2018-12-04T18:24:45.297Z,8.10
2018-12-04T18:27:15.093Z,8.90
2018-12-04T18:29:44.719Z,8.20
2018-12-04T18:32:17.463Z,8.17
2018-12-04T18:34:47.912Z,8.53
2018-12-04T18:37:17.549Z,8.07
2018-12-04T18:39:47.320Z,8.43
2018-12-04T18:42:18.183Z,8.17
2018-12-04T18:44:48.031Z,7.80
2018-12-04T18:47:19.297Z,16.60
2018-12-04T18:49:49.118Z,10.17
2018-12-04T18:52:18.821Z,9.27
2018-12-04T18:54:48.442Z,9.17
2018-12-04T18:57:18.026Z,9.73
2018-12-04T18:59:47.744Z,10.80
2018-12-04T19:02:18.889Z,11.00
2018-12-04T19:04:52.445Z,12.23
2018-12-04T19:07:22.055Z,11.70
2018-12-04T19:09:53.709Z,10.00
2018-12-04T19:12:24.229Z,10.50
2018-12-04T19:14:53.737Z,12.77
2018-12-04T19:17:23.120Z,9.83
2018-12-04T19:19:52.536Z,11.30
2018-12-04T19:22:22.095Z,10.00
2018-12-04T19:24:53.606Z,10.17
2018-12-04T19:27:23.984Z,11.00
2018-12-04T19:29:53.375Z,9.53
2018-12-04T19:32:23.231Z,10.67
2018-12-04T19:34:53.904Z,10.50
2018-12-04T19:37:23.373Z,9.73
2018-12-04T19:39:52.984Z,10.53
2018-12-04T19:42:22.493Z,10.67
2018-12-04T19:44:51.981Z,11.20
2018-12-04T19:47:21.359Z,10.13
2018-12-04T19:49:50.830Z,9.40
2018-12-04T19:52:20.389Z,10.43
2018-12-04T19:54:49.772Z,9.90
2018-12-04T19:57:19.530Z,10.60
2018-12-04T19:59:49.132Z,10.10
2018-12-04T20:02:18.601Z,10.47
2018-12-04T20:04:48.425Z,10.43
2018-12-04T20:07:18.025Z,9.10
2018-12-04T20:09:49.431Z,9.50
2018-12-04T20:12:25.727Z,8.77
2018-12-04T20:14:55.436Z,8.53
2018-12-04T20:17:29.055Z,8.87
2018-12-04T20:20:06.271Z,10.13
2018-12-04T20:22:43.903Z,9.13
2018-12-04T20:25:19.907Z,10.00
2018-12-04T20:27:50.874Z,9.60
2018-12-04T20:30:21.647Z,11.93
2018-12-04T20:32:59.816Z,11.03
2018-12-04T20:35:29.414Z,10.23
2018-12-04T20:38:02.510Z,11.43
2018-12-04T20:40:36.102Z,11.37
2018-12-04T20:43:07.766Z,10.20
2018-12-04T20:45:41.774Z,10.10
2018-12-04T20:48:14.198Z,10.47
2018-12-04T20:50:43.703Z,10.53
2018-12-04T20:53:13.099Z,11.27
2018-12-04T20:55:42.626Z,12.87
2018-12-04T20:58:12.116Z,12.40
2018-12-04T21:00:41.698Z,12.30
2018-12-04T21:03:11.178Z,12.30
2018-12-04T21:05:41.077Z,11.40
2018-12-04T21:08:11.006Z,11.97
2018-12-04T21:10:41.089Z,11.77
2018-12-04T21:13:14.469Z,10.93
2018-12-04T21:15:42.861Z,10.10
2018-12-04T21:18:13.770Z,9.73
2018-12-04T21:20:43.936Z,9.60
2018-12-04T21:23:13.902Z,9.13
2018-12-04T21:25:43.777Z,9.70
2018-12-04T21:28:24.962Z,9.73
2018-12-04T21:31:11.763Z,9.40
2018-12-04T21:34:09.226Z,7.83
2018-12-04T21:37:05.557Z,8.10
2018-12-04T21:39:38.811Z,8.00
2018-12-04T21:42:26.581Z,13.30
2018-12-04T21:45:31.916Z,10.00
2018-12-04T21:48:21.792Z,8.77
2018-12-04T21:50:51.893Z,9.80
2018-12-04T21:53:22.019Z,13.43
2018-12-04T21:55:51.721Z,12.50
2018-12-04T21:58:21.607Z,13.73
2018-12-04T22:00:52.135Z,14.10
2018-12-04T22:03:22.641Z,13.07
2018-12-04T22:05:54.287Z,11.53
2018-12-04T22:08:24.321Z,11.13
2018-12-04T22:10:54.884Z,10.67
2018-12-04T22:13:24.858Z,12.30
2018-12-04T22:15:54.348Z,11.20
2018-12-04T22:18:23.790Z,10.83
2018-12-04T22:20:53.878Z,12.27
2018-12-04T22:23:23.367Z,10.33
2018-12-04T22:25:52.936Z,12.00
2018-12-04T22:28:22.411Z,12.63
2018-12-04T22:30:52.230Z,14.13
2018-12-04T22:33:23.146Z,11.73
2018-12-04T22:35:53.370Z,10.10
2018-12-04T22:38:22.768Z,8.57
2018-12-04T22:40:52.257Z,8.30
2018-12-04T22:43:21.756Z,7.93
2018-12-04T22:45:51.487Z,8.53
2018-12-04T22:48:21.067Z,7.90
2018-12-04T22:50:51.630Z,8.13
2018-12-04T22:53:21.009Z,8.03
2018-12-04T22:55:50.436Z,8.73
2018-12-04T22:58:19.821Z,8.77
2018-12-04T23:00:50.442Z,9.60
2018-12-04T23:03:19.934Z,10.77
2018-12-04T23:05:50.032Z,12.43
2018-12-04T23:08:19.509Z,10.60
2018-12-04T23:10:49.242Z,8.80
2018-12-04T23:13:20.429Z,7.90
2018-12-04T23:15:50.132Z,7.83
2018-12-04T23:18:19.685Z,7.20
2018-12-04T23:20:50.523Z,7.17
2018-12-04T23:23:20.001Z,8.53
2018-12-04T23:25:49.513Z,9.90
2018-12-04T23:28:18.921Z,11.37
2018-12-04T23:30:48.400Z,9.50
2018-12-04T23:33:17.896Z,9.40
2018-12-04T23:35:47.641Z,8.83
2018-12-04T23:38:17.353Z,7.80
2018-12-04T23:40:47.057Z,8.60
2018-12-04T23:43:16.542Z,7.00
2018-12-04T23:45:45.901Z,7.27
2018-12-04T23:48:15.275Z,6.90
2018-12-04T23:50:44.766Z,7.63
2018-12-04T23:53:14.155Z,8.27
2018-12-04T23:55:43.547Z,8.13
2018-12-04T23:58:12.941Z,7.73
